sensor_id;sensor_type;location;lat;lon;timestamp;P1;durP1;ratioP1;P2;durP2;ratioP2
19951;SDS011;10137;49.406;19.484;2023-11-19T00:00:28;27.10;;;13.67;;
19951;SDS011;10137;49.406;19.484;2023-11-19T00:02:56;27.03;;;13.60;;
19951;SDS011;10137;49.406;19.484;2023-11-19T00:05:26;25.67;;;12.93;;
19951;SDS011;10137;49.406;19.484;2023-11-19T00:07:55;25.63;;;13.17;;
19951;SDS011;10137;49.406;19.484;2023-11-19T00:10:23;27.47;;;13.90;;
19951;SDS011;10137;49.406;19.484;2023-11-19T00:12:51;26.63;;;13.33;;
19951;SDS011;10137;49.406;19.484;2023-11-19T00:15:19;22.53;;;11.97;;
19951;SDS011;10137;49.406;19.484;2023-11-19T00:17:49;23.50;;;12.17;;
19951;SDS011;10137;49.406;19.484;2023-11-19T00:20:18;23.27;;;12.40;;
19951;SDS011;10137;49.406;19.484;2023-11-19T00:22:49;20.77;;;11.63;;
19951;SDS011;10137;49.406;19.484;2023-11-19T00:25:18;22.83;;;11.90;;
19951;SDS011;10137;49.406;19.484;2023-11-19T00:27:51;23.60;;;12.70;;
19951;SDS011;10137;49.406;19.484;2023-11-19T00:30:20;25.83;;;12.17;;
19951;SDS011;10137;49.406;19.484;2023-11-19T00:32:48;24.30;;;12.07;;
19951;SDS011;10137;49.406;19.484;2023-11-19T00:35:19;20.70;;;11.60;;
19951;SDS011;10137;49.406;19.484;2023-11-19T00:37:47;23.57;;;11.87;;
19951;SDS011;10137;49.406;19.484;2023-11-19T00:40:17;22.00;;;13.07;;
19951;SDS011;10137;49.406;19.484;2023-11-19T00:42:48;24.23;;;12.87;;
19951;SDS011;10137;49.406;19.484;2023-11-19T00:45:16;22.03;;;11.70;;
19951;SDS011;10137;49.406;19.484;2023-11-19T00:47:44;23.53;;;12.53;;
19951;SDS011;10137;49.406;19.484;2023-11-19T00:50:12;21.73;;;11.73;;
19951;SDS011;10137;49.406;19.484;2023-11-19T00:52:42;22.90;;;12.80;;
19951;SDS011;10137;49.406;19.484;2023-11-19T00:55:13;28.00;;;13.50;;
19951;SDS011;10137;49.406;19.484;2023-11-19T00:57:43;26.60;;;13.50;;
19951;SDS011;10137;49.406;19.484;2023-11-19T01:00:14;27.50;;;13.97;;
19951;SDS011;10137;49.406;19.484;2023-11-19T01:02:45;27.73;;;14.53;;
19951;SDS011;10137;49.406;19.484;2023-11-19T01:05:16;29.90;;;14.63;;
19951;SDS011;10137;49.406;19.484;2023-11-19T01:07:46;29.03;;;14.67;;
19951;SDS011;10137;49.406;19.484;2023-11-19T01:10:14;27.17;;;13.97;;
19951;SDS011;10137;49.406;19.484;2023-11-19T01:12:48;29.53;;;14.10;;
19951;SDS011;10137;49.406;19.484;2023-11-19T01:15:16;24.57;;;13.80;;
19951;SDS011;10137;49.406;19.484;2023-11-19T01:17:45;28.47;;;14.30;;
19951;SDS011;10137;49.406;19.484;2023-11-19T01:20:12;28.27;;;14.23;;
19951;SDS011;10137;49.406;19.484;2023-11-19T01:22:39;32.07;;;14.80;;
19951;SDS011;10137;49.406;19.484;2023-11-19T01:25:08;25.77;;;13.00;;
19951;SDS011;10137;49.406;19.484;2023-11-19T01:27:36;27.50;;;14.23;;
19951;SDS011;10137;49.406;19.484;2023-11-19T01:30:06;31.13;;;14.57;;
19951;SDS011;10137;49.406;19.484;2023-11-19T01:32:39;24.87;;;13.87;;
19951;SDS011;10137;49.406;19.484;2023-11-19T01:35:07;24.97;;;13.50;;
19951;SDS011;10137;49.406;19.484;2023-11-19T01:37:38;28.00;;;13.43;;
19951;SDS011;10137;49.406;19.484;2023-11-19T01:40:07;25.97;;;12.87;;
19951;SDS011;10137;49.406;19.484;2023-11-19T01:42:38;34.70;;;15.90;;
19951;SDS011;10137;49.406;19.484;2023-11-19T01:45:09;26.83;;;14.57;;
19951;SDS011;10137;49.406;19.484;2023-11-19T01:47:55;29.73;;;15.63;;
19951;SDS011;10137;49.406;19.484;2023-11-19T01:50:23;28.53;;;15.27;;
19951;SDS011;10137;49.406;19.484;2023-11-19T01:52:53;30.30;;;15.70;;
19951;SDS011;10137;49.406;19.484;2023-11-19T01:55:24;27.77;;;13.87;;
19951;SDS011;10137;49.406;19.484;2023-11-19T01:57:54;31.10;;;15.47;;
19951;SDS011;10137;49.406;19.484;2023-11-19T02:00:28;30.97;;;16.30;;
19951;SDS011;10137;49.406;19.484;2023-11-19T02:03:01;29.33;;;14.57;;
19951;SDS011;10137;49.406;19.484;2023-11-19T02:05:31;26.57;;;15.23;;
19951;SDS011;10137;49.406;19.484;2023-11-19T02:08:00;31.47;;;15.53;;
19951;SDS011;10137;49.406;19.484;2023-11-19T02:10:30;28.70;;;14.80;;
19951;SDS011;10137;49.406;19.484;2023-11-19T02:12:58;30.60;;;14.60;;
19951;SDS011;10137;49.406;19.484;2023-11-19T02:15:26;31.07;;;15.73;;
19951;SDS011;10137;49.406;19.484;2023-11-19T02:20:48;26.90;;;13.50;;
19951;SDS011;10137;49.406;19.484;2023-11-19T02:23:17;22.93;;;12.80;;
19951;SDS011;10137;49.406;19.484;2023-11-19T02:25:50;27.07;;;13.53;;
19951;SDS011;10137;49.406;19.484;2023-11-19T02:28:28;23.80;;;13.30;;
19951;SDS011;10137;49.406;19.484;2023-11-19T02:30:56;24.30;;;12.07;;
19951;SDS011;10137;49.406;19.484;2023-11-19T02:33:25;21.63;;;12.03;;
19951;SDS011;10137;49.406;19.484;2023-11-19T02:35:53;21.43;;;11.20;;
19951;SDS011;10137;49.406;19.484;2023-11-19T02:38:21;20.70;;;10.83;;
19951;SDS011;10137;49.406;19.484;2023-11-19T02:40:50;22.20;;;11.77;;
19951;SDS011;10137;49.406;19.484;2023-11-19T02:43:17;20.83;;;10.93;;
19951;SDS011;10137;49.406;19.484;2023-11-19T02:45:47;16.50;;;9.23;;
19951;SDS011;10137;49.406;19.484;2023-11-19T02:48:15;17.87;;;9.03;;
19951;SDS011;10137;49.406;19.484;2023-11-19T02:50:43;19.83;;;11.17;;
19951;SDS011;10137;49.406;19.484;2023-11-19T02:53:13;17.67;;;10.37;;
19951;SDS011;10137;49.406;19.484;2023-11-19T02:55:43;15.93;;;8.83;;
19951;SDS011;10137;49.406;19.484;2023-11-19T02:58:15;16.43;;;8.67;;
19951;SDS011;10137;49.406;19.484;2023-11-19T03:00:51;16.13;;;8.57;;
19951;SDS011;10137;49.406;19.484;2023-11-19T03:03:24;14.80;;;8.27;;
19951;SDS011;10137;49.406;19.484;2023-11-19T03:05:57;15.20;;;8.00;;
19951;SDS011;10137;49.406;19.484;2023-11-19T03:08:25;12.37;;;7.20;;
19951;SDS011;10137;49.406;19.484;2023-11-19T03:10:56;12.17;;;7.00;;
19951;SDS011;10137;49.406;19.484;2023-11-19T03:13:25;10.63;;;6.50;;
19951;SDS011;10137;49.406;19.484;2023-11-19T03:15:56;12.10;;;6.93;;
19951;SDS011;10137;49.406;19.484;2023-11-19T03:18:24;10.17;;;6.10;;
19951;SDS011;10137;49.406;19.484;2023-11-19T03:20:55;10.27;;;6.80;;
19951;SDS011;10137;49.406;19.484;2023-11-19T03:23:25;11.37;;;6.47;;
19951;SDS011;10137;49.406;19.484;2023-11-19T03:25:54;11.17;;;6.50;;
19951;SDS011;10137;49.406;19.484;2023-11-19T03:28:23;9.10;;;5.90;;
19951;SDS011;10137;49.406;19.484;2023-11-19T03:30:56;10.70;;;6.60;;
19951;SDS011;10137;49.406;19.484;2023-11-19T03:33:25;11.90;;;7.10;;
19951;SDS011;10137;49.406;19.484;2023-11-19T03:35:54;11.93;;;7.17;;
19951;SDS011;10137;49.406;19.484;2023-11-19T03:38:24;9.87;;;6.10;;
19951;SDS011;10137;49.406;19.484;2023-11-19T03:40:54;11.10;;;5.67;;
19951;SDS011;10137;49.406;19.484;2023-11-19T03:43:23;10.33;;;6.13;;
19951;SDS011;10137;49.406;19.484;2023-11-19T03:45:51;10.27;;;5.87;;
19951;SDS011;10137;49.406;19.484;2023-11-19T03:48:24;11.07;;;6.13;;
19951;SDS011;10137;49.406;19.484;2023-11-19T03:50:55;11.40;;;6.47;;
19951;SDS011;10137;49.406;19.484;2023-11-19T03:53:22;9.47;;;6.10;;
19951;SDS011;10137;49.406;19.484;2023-11-19T03:55:50;11.43;;;6.37;;
19951;SDS011;10137;49.406;19.484;2023-11-19T03:58:19;15.07;;;7.20;;
19951;SDS011;10137;49.406;19.484;2023-11-19T04:00:47;10.50;;;5.83;;
19951;SDS011;10137;49.406;19.484;2023-11-19T04:03:24;11.27;;;6.33;;
19951;SDS011;10137;49.406;19.484;2023-11-19T04:05:52;9.47;;;6.17;;
19951;SDS011;10137;49.406;19.484;2023-11-19T04:08:20;11.20;;;6.07;;
19951;SDS011;10137;49.406;19.484;2023-11-19T04:10:48;11.07;;;6.60;;
19951;SDS011;10137;49.406;19.484;2023-11-19T04:13:17;10.90;;;6.50;;
19951;SDS011;10137;49.406;19.484;2023-11-19T04:15:46;11.60;;;6.10;;
19951;SDS011;10137;49.406;19.484;2023-11-19T04:18:14;9.77;;;6.07;;
19951;SDS011;10137;49.406;19.484;2023-11-19T04:20:46;9.60;;;6.00;;
19951;SDS011;10137;49.406;19.484;2023-11-19T04:23:17;11.57;;;6.80;;
19951;SDS011;10137;49.406;19.484;2023-11-19T04:25:45;11.57;;;6.67;;
19951;SDS011;10137;49.406;19.484;2023-11-19T04:28:13;12.50;;;7.30;;
19951;SDS011;10137;49.406;19.484;2023-11-19T04:30:41;14.97;;;7.67;;
19951;SDS011;10137;49.406;19.484;2023-11-19T04:33:10;11.77;;;7.00;;
19951;SDS011;10137;49.406;19.484;2023-11-19T04:35:38;11.53;;;6.90;;
19951;SDS011;10137;49.406;19.484;2023-11-19T04:38:09;12.20;;;7.03;;
19951;SDS011;10137;49.406;19.484;2023-11-19T04:40:37;13.30;;;7.07;;
19951;SDS011;10137;49.406;19.484;2023-11-19T04:43:04;14.13;;;8.70;;
19951;SDS011;10137;49.406;19.484;2023-11-19T04:45:33;25.93;;;18.63;;
19951;SDS011;10137;49.406;19.484;2023-11-19T04:48:02;29.10;;;22.13;;
19951;SDS011;10137;49.406;19.484;2023-11-19T04:50:30;20.80;;;14.70;;
19951;SDS011;10137;49.406;19.484;2023-11-19T04:52:58;13.63;;;8.23;;
19951;SDS011;10137;49.406;19.484;2023-11-19T04:55:31;9.40;;;6.30;;
19951;SDS011;10137;49.406;19.484;2023-11-19T04:57:59;10.37;;;6.87;;
19951;SDS011;10137;49.406;19.484;2023-11-19T05:00:26;11.93;;;6.60;;
19951;SDS011;10137;49.406;19.484;2023-11-19T05:02:55;10.83;;;6.17;;
19951;SDS011;10137;49.406;19.484;2023-11-19T05:05:23;11.13;;;6.97;;
19951;SDS011;10137;49.406;19.484;2023-11-19T05:07:53;10.83;;;5.97;;
19951;SDS011;10137;49.406;19.484;2023-11-19T05:10:23;11.50;;;6.20;;
19951;SDS011;10137;49.406;19.484;2023-11-19T05:12:53;9.40;;;6.10;;
19951;SDS011;10137;49.406;19.484;2023-11-19T05:15:22;10.70;;;6.47;;
19951;SDS011;10137;49.406;19.484;2023-11-19T05:17:53;11.77;;;6.60;;
19951;SDS011;10137;49.406;19.484;2023-11-19T05:20:23;16.03;;;8.13;;
19951;SDS011;10137;49.406;19.484;2023-11-19T05:22:53;16.13;;;9.47;;
19951;SDS011;10137;49.406;19.484;2023-11-19T05:25:24;19.50;;;10.13;;
19951;SDS011;10137;49.406;19.484;2023-11-19T05:27:58;20.80;;;10.30;;
19951;SDS011;10137;49.406;19.484;2023-11-19T05:30:26;22.77;;;11.83;;
19951;SDS011;10137;49.406;19.484;2023-11-19T05:32:54;22.80;;;11.83;;
19951;SDS011;10137;49.406;19.484;2023-11-19T05:35:22;17.83;;;10.23;;
19951;SDS011;10137;49.406;19.484;2023-11-19T05:37:51;15.63;;;9.13;;
19951;SDS011;10137;49.406;19.484;2023-11-19T05:40:18;13.73;;;8.70;;
19951;SDS011;10137;49.406;19.484;2023-11-19T05:42:46;16.17;;;9.00;;
19951;SDS011;10137;49.406;19.484;2023-11-19T05:45:16;15.00;;;8.70;;
19951;SDS011;10137;49.406;19.484;2023-11-19T05:47:45;13.67;;;7.73;;
19951;SDS011;10137;49.406;19.484;2023-11-19T05:50:13;13.77;;;8.00;;
19951;SDS011;10137;49.406;19.484;2023-11-19T05:52:41;12.80;;;7.57;;
19951;SDS011;10137;49.406;19.484;2023-11-19T05:55:09;13.27;;;7.43;;
19951;SDS011;10137;49.406;19.484;2023-11-19T05:57:38;13.27;;;7.27;;
19951;SDS011;10137;49.406;19.484;2023-11-19T06:00:07;13.87;;;6.70;;
19951;SDS011;10137;49.406;19.484;2023-11-19T06:02:45;12.97;;;8.87;;
19951;SDS011;10137;49.406;19.484;2023-11-19T06:05:14;12.73;;;7.47;;
19951;SDS011;10137;49.406;19.484;2023-11-19T06:07:45;10.80;;;6.70;;
19951;SDS011;10137;49.406;19.484;2023-11-19T06:10:14;12.73;;;7.23;;
19951;SDS011;10137;49.406;19.484;2023-11-19T06:12:47;11.13;;;7.07;;
19951;SDS011;10137;49.406;19.484;2023-11-19T06:15:23;14.07;;;7.80;;
19951;SDS011;10137;49.406;19.484;2023-11-19T06:17:58;12.80;;;7.83;;
19951;SDS011;10137;49.406;19.484;2023-11-19T06:20:30;14.77;;;8.03;;
19951;SDS011;10137;49.406;19.484;2023-11-19T06:23:02;12.63;;;6.93;;
19951;SDS011;10137;49.406;19.484;2023-11-19T06:25:30;12.83;;;6.90;;
19951;SDS011;10137;49.406;19.484;2023-11-19T06:28:02;12.87;;;6.97;;
19951;SDS011;10137;49.406;19.484;2023-11-19T06:30:31;10.20;;;6.07;;
19951;SDS011;10137;49.406;19.484;2023-11-19T06:33:08;13.23;;;7.20;;
19951;SDS011;10137;49.406;19.484;2023-11-19T06:35:39;9.80;;;6.33;;
19951;SDS011;10137;49.406;19.484;2023-11-19T06:38:10;12.10;;;6.30;;
19951;SDS011;10137;49.406;19.484;2023-11-19T06:40:41;11.13;;;6.13;;
19951;SDS011;10137;49.406;19.484;2023-11-19T06:43:08;10.90;;;6.27;;
19951;SDS011;10137;49.406;19.484;2023-11-19T06:45:39;11.17;;;6.40;;
19951;SDS011;10137;49.406;19.484;2023-11-19T06:48:15;12.60;;;6.83;;
19951;SDS011;10137;49.406;19.484;2023-11-19T06:50:46;14.07;;;6.77;;
19951;SDS011;10137;49.406;19.484;2023-11-19T06:53:16;11.97;;;6.60;;
19951;SDS011;10137;49.406;19.484;2023-11-19T06:55:48;10.90;;;6.83;;
19951;SDS011;10137;49.406;19.484;2023-11-19T06:58:17;11.97;;;6.63;;
19951;SDS011;10137;49.406;19.484;2023-11-19T07:00:48;14.77;;;7.03;;
19951;SDS011;10137;49.406;19.484;2023-11-19T07:03:23;11.17;;;6.43;;
19951;SDS011;10137;49.406;19.484;2023-11-19T07:05:54;10.87;;;6.70;;
19951;SDS011;10137;49.406;19.484;2023-11-19T07:08:26;20.63;;;10.10;;
19951;SDS011;10137;49.406;19.484;2023-11-19T07:11:05;18.63;;;9.30;;
19951;SDS011;10137;49.406;19.484;2023-11-19T07:13:38;15.07;;;8.30;;
19951;SDS011;10137;49.406;19.484;2023-11-19T07:16:09;19.40;;;12.03;;
19951;SDS011;10137;49.406;19.484;2023-11-19T07:18:41;14.30;;;9.00;;
19951;SDS011;10137;49.406;19.484;2023-11-19T07:21:09;11.10;;;6.37;;
19951;SDS011;10137;49.406;19.484;2023-11-19T07:23:37;11.37;;;6.93;;
19951;SDS011;10137;49.406;19.484;2023-11-19T07:26:07;8.60;;;6.03;;
19951;SDS011;10137;49.406;19.484;2023-11-19T07:28:39;10.83;;;6.07;;
19951;SDS011;10137;49.406;19.484;2023-11-19T07:31:10;9.80;;;6.40;;
19951;SDS011;10137;49.406;19.484;2023-11-19T07:33:39;10.33;;;6.40;;
19951;SDS011;10137;49.406;19.484;2023-11-19T07:36:14;9.03;;;5.50;;
19951;SDS011;10137;49.406;19.484;2023-11-19T07:38:43;8.00;;;5.37;;
19951;SDS011;10137;49.406;19.484;2023-11-19T07:41:11;9.50;;;5.73;;
19951;SDS011;10137;49.406;19.484;2023-11-19T07:43:39;11.83;;;6.27;;
19951;SDS011;10137;49.406;19.484;2023-11-19T07:46:13;9.47;;;5.30;;
19951;SDS011;10137;49.406;19.484;2023-11-19T07:48:43;9.00;;;5.80;;
19951;SDS011;10137;49.406;19.484;2023-11-19T07:51:11;8.90;;;5.37;;
19951;SDS011;10137;49.406;19.484;2023-11-19T07:53:39;10.47;;;5.83;;
19951;SDS011;10137;49.406;19.484;2023-11-19T07:56:07;10.17;;;6.23;;
19951;SDS011;10137;49.406;19.484;2023-11-19T07:58:36;8.80;;;4.80;;
19951;SDS011;10137;49.406;19.484;2023-11-19T08:01:05;12.27;;;6.23;;
19951;SDS011;10137;49.406;19.484;2023-11-19T08:03:33;11.00;;;5.40;;
19951;SDS011;10137;49.406;19.484;2023-11-19T08:06:03;12.57;;;6.70;;
19951;SDS011;10137;49.406;19.484;2023-11-19T08:08:33;10.90;;;5.70;;
19951;SDS011;10137;49.406;19.484;2023-11-19T08:11:02;8.13;;;4.83;;
19951;SDS011;10137;49.406;19.484;2023-11-19T08:13:32;11.57;;;6.17;;
19951;SDS011;10137;49.406;19.484;2023-11-19T08:16:03;7.77;;;4.27;;
19951;SDS011;10137;49.406;19.484;2023-11-19T08:18:32;6.27;;;4.23;;
19951;SDS011;10137;49.406;19.484;2023-11-19T08:21:04;7.17;;;4.03;;
19951;SDS011;10137;49.406;19.484;2023-11-19T08:23:33;4.73;;;3.23;;
19951;SDS011;10137;49.406;19.484;2023-11-19T08:26:01;4.80;;;3.07;;
19951;SDS011;10137;49.406;19.484;2023-11-19T08:28:32;4.43;;;3.13;;
19951;SDS011;10137;49.406;19.484;2023-11-19T08:31:01;4.77;;;3.57;;
19951;SDS011;10137;49.406;19.484;2023-11-19T08:33:32;4.60;;;3.17;;
19951;SDS011;10137;49.406;19.484;2023-11-19T08:36:04;4.87;;;3.60;;
19951;SDS011;10137;49.406;19.484;2023-11-19T08:38:35;6.50;;;3.93;;
19951;SDS011;10137;49.406;19.484;2023-11-19T08:41:05;6.90;;;4.23;;
19951;SDS011;10137;49.406;19.484;2023-11-19T08:43:33;7.03;;;4.63;;
19951;SDS011;10137;49.406;19.484;2023-11-19T08:46:01;12.70;;;6.03;;
19951;SDS011;10137;49.406;19.484;2023-11-19T08:48:29;9.27;;;5.37;;
19951;SDS011;10137;49.406;19.484;2023-11-19T08:50:57;7.67;;;4.47;;
19951;SDS011;10137;49.406;19.484;2023-11-19T08:53:27;7.70;;;4.97;;
19951;SDS011;10137;49.406;19.484;2023-11-19T08:55:55;9.47;;;5.37;;
19951;SDS011;10137;49.406;19.484;2023-11-19T08:58:23;6.93;;;4.53;;
19951;SDS011;10137;49.406;19.484;2023-11-19T09:00:51;6.27;;;4.43;;
19951;SDS011;10137;49.406;19.484;2023-11-19T09:03:20;7.17;;;4.23;;
19951;SDS011;10137;49.406;19.484;2023-11-19T09:05:48;6.17;;;4.13;;
19951;SDS011;10137;49.406;19.484;2023-11-19T09:08:15;6.00;;;4.27;;
19951;SDS011;10137;49.406;19.484;2023-11-19T09:10:43;6.73;;;4.43;;
19951;SDS011;10137;49.406;19.484;2023-11-19T09:13:12;7.73;;;4.87;;
19951;SDS011;10137;49.406;19.484;2023-11-19T09:15:43;8.10;;;4.87;;
19951;SDS011;10137;49.406;19.484;2023-11-19T09:18:11;13.53;;;6.40;;
19951;SDS011;10137;49.406;19.484;2023-11-19T09:20:39;8.90;;;5.53;;
19951;SDS011;10137;49.406;19.484;2023-11-19T09:23:08;8.87;;;5.63;;
19951;SDS011;10137;49.406;19.484;2023-11-19T09:25:37;7.00;;;4.77;;
19951;SDS011;10137;49.406;19.484;2023-11-19T09:28:07;9.17;;;4.40;;
19951;SDS011;10137;49.406;19.484;2023-11-19T09:30:38;7.57;;;3.90;;
19951;SDS011;10137;49.406;19.484;2023-11-19T09:33:06;5.10;;;3.67;;
19951;SDS011;10137;49.406;19.484;2023-11-19T09:35:36;5.70;;;4.10;;
19951;SDS011;10137;49.406;19.484;2023-11-19T09:38:06;9.57;;;4.50;;
19951;SDS011;10137;49.406;19.484;2023-11-19T09:40:33;6.97;;;4.73;;
19951;SDS011;10137;49.406;19.484;2023-11-19T09:43:01;8.50;;;5.90;;
19951;SDS011;10137;49.406;19.484;2023-11-19T09:45:37;5.77;;;4.10;;
19951;SDS011;10137;49.406;19.484;2023-11-19T09:48:14;8.10;;;5.43;;
19951;SDS011;10137;49.406;19.484;2023-11-19T09:50:43;8.70;;;5.23;;
19951;SDS011;10137;49.406;19.484;2023-11-19T09:53:13;6.53;;;4.60;;
19951;SDS011;10137;49.406;19.484;2023-11-19T09:55:41;9.60;;;5.13;;
19951;SDS011;10137;49.406;19.484;2023-11-19T09:58:09;9.77;;;4.47;;
19951;SDS011;10137;49.406;19.484;2023-11-19T10:00:41;7.87;;;4.20;;
19951;SDS011;10137;49.406;19.484;2023-11-19T10:03:11;8.63;;;4.83;;
19951;SDS011;10137;49.406;19.484;2023-11-19T10:05:41;9.00;;;4.77;;
19951;SDS011;10137;49.406;19.484;2023-11-19T10:08:16;6.63;;;4.07;;
19951;SDS011;10137;49.406;19.484;2023-11-19T10:10:44;8.50;;;4.80;;
19951;SDS011;10137;49.406;19.484;2023-11-19T10:13:12;8.87;;;4.73;;
19951;SDS011;10137;49.406;19.484;2023-11-19T10:15:45;10.23;;;5.93;;
19951;SDS011;10137;49.406;19.484;2023-11-19T10:18:17;6.27;;;4.27;;
19951;SDS011;10137;49.406;19.484;2023-11-19T10:20:50;7.80;;;4.27;;
19951;SDS011;10137;49.406;19.484;2023-11-19T10:23:17;6.57;;;3.73;;
19951;SDS011;10137;49.406;19.484;2023-11-19T10:25:47;6.47;;;4.47;;
19951;SDS011;10137;49.406;19.484;2023-11-19T10:28:22;7.27;;;4.83;;
19951;SDS011;10137;49.406;19.484;2023-11-19T10:30:52;8.03;;;5.10;;
19951;SDS011;10137;49.406;19.484;2023-11-19T10:33:23;7.07;;;4.73;;
19951;SDS011;10137;49.406;19.484;2023-11-19T10:35:55;9.63;;;5.20;;
19951;SDS011;10137;49.406;19.484;2023-11-19T10:38:23;6.93;;;4.30;;
19951;SDS011;10137;49.406;19.484;2023-11-19T10:40:53;9.17;;;5.53;;
19951;SDS011;10137;49.406;19.484;2023-11-19T10:43:22;10.13;;;5.80;;
19951;SDS011;10137;49.406;19.484;2023-11-19T10:46:10;8.37;;;5.13;;
19951;SDS011;10137;49.406;19.484;2023-11-19T10:48:39;8.67;;;4.73;;
19951;SDS011;10137;49.406;19.484;2023-11-19T10:51:07;11.50;;;6.57;;
19951;SDS011;10137;49.406;19.484;2023-11-19T10:53:36;10.20;;;5.83;;
19951;SDS011;10137;49.406;19.484;2023-11-19T10:56:06;10.73;;;5.90;;
19951;SDS011;10137;49.406;19.484;2023-11-19T10:58:40;11.20;;;5.97;;
19951;SDS011;10137;49.406;19.484;2023-11-19T11:01:18;9.23;;;5.30;;
19951;SDS011;10137;49.406;19.484;2023-11-19T11:03:47;16.27;;;7.67;;
19951;SDS011;10137;49.406;19.484;2023-11-19T11:06:16;20.57;;;8.83;;
19951;SDS011;10137;49.406;19.484;2023-11-19T11:08:45;14.40;;;6.73;;
19951;SDS011;10137;49.406;19.484;2023-11-19T11:11:15;15.00;;;6.10;;
19951;SDS011;10137;49.406;19.484;2023-11-19T11:13:47;7.60;;;4.50;;
19951;SDS011;10137;49.406;19.484;2023-11-19T11:16:19;5.90;;;4.17;;
19951;SDS011;10137;49.406;19.484;2023-11-19T11:18:48;5.93;;;3.93;;
19951;SDS011;10137;49.406;19.484;2023-11-19T11:21:17;6.63;;;3.60;;
19951;SDS011;10137;49.406;19.484;2023-11-19T11:24:03;8.47;;;5.20;;
19951;SDS011;10137;49.406;19.484;2023-11-19T11:26:59;7.43;;;5.10;;
19951;SDS011;10137;49.406;19.484;2023-11-19T11:29:41;9.87;;;5.67;;
19951;SDS011;10137;49.406;19.484;2023-11-19T11:32:20;11.33;;;5.63;;
19951;SDS011;10137;49.406;19.484;2023-11-19T11:35:00;7.53;;;4.90;;
19951;SDS011;10137;49.406;19.484;2023-11-19T11:37:37;8.67;;;4.83;;
19951;SDS011;10137;49.406;19.484;2023-11-19T11:40:14;7.47;;;5.13;;
19951;SDS011;10137;49.406;19.484;2023-11-19T11:42:43;8.50;;;5.47;;
19951;SDS011;10137;49.406;19.484;2023-11-19T11:45:11;7.43;;;4.40;;
19951;SDS011;10137;49.406;19.484;2023-11-19T11:50:51;8.93;;;4.70;;
19951;SDS011;10137;49.406;19.484;2023-11-19T11:53:21;9.07;;;5.60;;
19951;SDS011;10137;49.406;19.484;2023-11-19T11:55:59;7.07;;;4.20;;
19951;SDS011;10137;49.406;19.484;2023-11-19T11:58:32;10.33;;;5.10;;
19951;SDS011;10137;49.406;19.484;2023-11-19T12:01:01;9.17;;;4.40;;
19951;SDS011;10137;49.406;19.484;2023-11-19T12:03:37;8.43;;;4.80;;
19951;SDS011;10137;49.406;19.484;2023-11-19T12:06:05;7.80;;;4.00;;
19951;SDS011;10137;49.406;19.484;2023-11-19T12:08:34;6.03;;;3.70;;
19951;SDS011;10137;49.406;19.484;2023-11-19T12:11:04;5.13;;;3.27;;
19951;SDS011;10137;49.406;19.484;2023-11-19T12:13:47;4.87;;;2.70;;
19951;SDS011;10137;49.406;19.484;2023-11-19T12:16:24;6.57;;;3.60;;
19951;SDS011;10137;49.406;19.484;2023-11-19T12:18:55;5.93;;;3.33;;
19951;SDS011;10137;49.406;19.484;2023-11-19T12:21:29;5.60;;;3.50;;
19951;SDS011;10137;49.406;19.484;2023-11-19T12:23:58;10.30;;;5.03;;
19951;SDS011;10137;49.406;19.484;2023-11-19T12:26:36;9.10;;;4.43;;
19951;SDS011;10137;49.406;19.484;2023-11-19T12:29:04;8.83;;;4.20;;
19951;SDS011;10137;49.406;19.484;2023-11-19T12:31:34;7.90;;;4.63;;
19951;SDS011;10137;49.406;19.484;2023-11-19T12:34:13;5.73;;;3.23;;
19951;SDS011;10137;49.406;19.484;2023-11-19T12:36:43;6.63;;;3.63;;
19951;SDS011;10137;49.406;19.484;2023-11-19T12:39:15;5.53;;;3.73;;
19951;SDS011;10137;49.406;19.484;2023-11-19T12:41:52;7.23;;;4.17;;
19951;SDS011;10137;49.406;19.484;2023-11-19T12:44:19;5.90;;;3.47;;
19951;SDS011;10137;49.406;19.484;2023-11-19T12:47:01;4.93;;;3.03;;
19951;SDS011;10137;49.406;19.484;2023-11-19T12:49:42;6.83;;;2.73;;
19951;SDS011;10137;49.406;19.484;2023-11-19T12:52:12;4.50;;;2.87;;
19951;SDS011;10137;49.406;19.484;2023-11-19T12:54:43;5.67;;;3.83;;
19951;SDS011;10137;49.406;19.484;2023-11-19T12:57:39;6.23;;;3.40;;
19951;SDS011;10137;49.406;19.484;2023-11-19T13:00:07;5.90;;;3.77;;
19951;SDS011;10137;49.406;19.484;2023-11-19T13:02:46;7.47;;;4.47;;
19951;SDS011;10137;49.406;19.484;2023-11-19T13:05:24;9.53;;;5.00;;
19951;SDS011;10137;49.406;19.484;2023-11-19T13:07:59;7.83;;;4.67;;
19951;SDS011;10137;49.406;19.484;2023-11-19T13:10:28;8.00;;;4.23;;
19951;SDS011;10137;49.406;19.484;2023-11-19T13:13:04;7.53;;;4.33;;
19951;SDS011;10137;49.406;19.484;2023-11-19T13:15:34;5.77;;;3.73;;
19951;SDS011;10137;49.406;19.484;2023-11-19T13:18:02;6.67;;;3.90;;
19951;SDS011;10137;49.406;19.484;2023-11-19T13:20:37;6.07;;;3.27;;
19951;SDS011;10137;49.406;19.484;2023-11-19T13:23:09;9.53;;;4.83;;
19951;SDS011;10137;49.406;19.484;2023-11-19T13:25:41;6.07;;;3.73;;
19951;SDS011;10137;49.406;19.484;2023-11-19T13:28:14;8.03;;;4.77;;
19951;SDS011;10137;49.406;19.484;2023-11-19T13:30:42;8.00;;;4.37;;
19951;SDS011;10137;49.406;19.484;2023-11-19T13:33:09;8.40;;;5.20;;
19951;SDS011;10137;49.406;19.484;2023-11-19T13:35:45;11.53;;;5.63;;
19951;SDS011;10137;49.406;19.484;2023-11-19T13:38:18;11.50;;;6.93;;
19951;SDS011;10137;49.406;19.484;2023-11-19T13:40:45;9.27;;;6.73;;
19951;SDS011;10137;49.406;19.484;2023-11-19T13:43:13;7.40;;;5.07;;
19951;SDS011;10137;49.406;19.484;2023-11-19T13:45:40;5.93;;;3.90;;
19951;SDS011;10137;49.406;19.484;2023-11-19T13:48:11;7.87;;;4.40;;
19951;SDS011;10137;49.406;19.484;2023-11-19T13:50:41;6.93;;;4.70;;
19951;SDS011;10137;49.406;19.484;2023-11-19T13:53:11;6.00;;;3.70;;
19951;SDS011;10137;49.406;19.484;2023-11-19T13:55:42;6.33;;;3.83;;
19951;SDS011;10137;49.406;19.484;2023-11-19T13:58:10;5.73;;;3.63;;
19951;SDS011;10137;49.406;19.484;2023-11-19T14:00:37;6.57;;;3.90;;
19951;SDS011;10137;49.406;19.484;2023-11-19T14:03:07;6.87;;;4.03;;
19951;SDS011;10137;49.406;19.484;2023-11-19T14:05:37;5.80;;;3.57;;
19951;SDS011;10137;49.406;19.484;2023-11-19T14:08:08;5.60;;;3.70;;
19951;SDS011;10137;49.406;19.484;2023-11-19T14:10:37;7.00;;;3.70;;
19951;SDS011;10137;49.406;19.484;2023-11-19T14:13:07;4.50;;;3.50;;
19951;SDS011;10137;49.406;19.484;2023-11-19T14:15:36;6.00;;;3.53;;
19951;SDS011;10137;49.406;19.484;2023-11-19T14:18:04;7.17;;;4.13;;
19951;SDS011;10137;49.406;19.484;2023-11-19T14:20:49;9.43;;;4.23;;
19951;SDS011;10137;49.406;19.484;2023-11-19T14:23:23;5.93;;;3.67;;
19951;SDS011;10137;49.406;19.484;2023-11-19T14:25:58;5.73;;;3.50;;
19951;SDS011;10137;49.406;19.484;2023-11-19T14:28:27;6.47;;;3.53;;
19951;SDS011;10137;49.406;19.484;2023-11-19T14:30:56;6.03;;;4.03;;
19951;SDS011;10137;49.406;19.484;2023-11-19T14:33:34;7.13;;;4.07;;
19951;SDS011;10137;49.406;19.484;2023-11-19T14:36:06;8.30;;;4.83;;
19951;SDS011;10137;49.406;19.484;2023-11-19T14:38:42;6.07;;;3.87;;
19951;SDS011;10137;49.406;19.484;2023-11-19T14:41:10;6.93;;;3.83;;
19951;SDS011;10137;49.406;19.484;2023-11-19T14:43:38;7.70;;;4.50;;
19951;SDS011;10137;49.406;19.484;2023-11-19T14:46:05;6.90;;;4.50;;
19951;SDS011;10137;49.406;19.484;2023-11-19T14:48:33;8.03;;;3.70;;